createdAt,value
2018-03-07T00:00:53.442Z,0.00
2018-03-07T00:01:53.466Z,0.00
2018-03-07T00:02:53.494Z,0.00
2018-03-07T00:03:53.526Z,0.00
2018-03-07T00:04:53.556Z,0.00
2018-03-07T00:05:53.587Z,0.00
2018-03-07T00:06:53.617Z,0.00
2018-03-07T00:07:53.648Z,0.00
2018-03-07T00:08:53.685Z,0.00
2018-03-07T00:09:53.706Z,0.00
2018-03-07T00:10:53.748Z,0.00
2018-03-07T00:11:53.770Z,0.00
2018-03-07T00:12:53.807Z,0.00
2018-03-07T00:13:53.829Z,0.00
2018-03-07T00:14:53.856Z,0.00
2018-03-07T00:15:53.886Z,0.00
2018-03-07T00:16:53.916Z,0.00
2018-03-07T00:17:54.068Z,0.00
2018-03-07T00:18:53.977Z,0.00
2018-03-07T00:19:54.011Z,0.00
2018-03-07T00:20:54.040Z,0.00
2018-03-07T00:21:54.071Z,0.00
2018-03-07T00:22:54.102Z,0.00
2018-03-07T00:23:54.130Z,0.00
2018-03-07T00:24:54.161Z,0.00
2018-03-07T00:25:54.192Z,0.00
2018-03-07T00:26:54.223Z,0.00
2018-03-07T00:27:54.260Z,0.00
2018-03-07T00:28:54.281Z,0.00
2018-03-07T00:29:54.315Z,0.00
2018-03-07T00:30:54.343Z,0.00
2018-03-07T00:31:54.373Z,0.00
2018-03-07T00:32:54.412Z,0.00
2018-03-07T00:33:54.434Z,0.00
2018-03-07T00:34:54.571Z,0.00
2018-03-07T00:35:54.494Z,0.00
2018-03-07T00:36:54.526Z,0.00
2018-03-07T00:37:54.556Z,0.00
2018-03-07T00:38:54.591Z,0.00
2018-03-07T00:39:54.616Z,0.00
2018-03-07T00:40:54.649Z,0.00
2018-03-07T00:41:54.697Z,0.00
2018-03-07T00:42:54.712Z,0.00
2018-03-07T00:43:54.739Z,0.00
2018-03-07T00:44:54.820Z,0.00
2018-03-07T00:45:54.803Z,0.00
2018-03-07T00:46:54.832Z,0.00
2018-03-07T00:47:54.870Z,0.00
2018-03-07T00:48:54.891Z,0.00
2018-03-07T00:49:54.931Z,0.00
2018-03-07T00:50:54.952Z,0.00
2018-03-07T00:51:54.995Z,0.00
2018-03-07T00:52:55.012Z,0.00
2018-03-07T00:53:55.042Z,0.00
2018-03-07T00:54:55.073Z,0.00
2018-03-07T00:55:55.102Z,0.00
2018-03-07T00:56:55.133Z,0.00
2018-03-07T00:57:55.161Z,0.00
2018-03-07T00:58:55.191Z,0.00
2018-03-07T00:59:55.222Z,0.00
2018-03-07T01:00:55.253Z,0.00
2018-03-07T01:01:55.282Z,0.00
2018-03-07T01:02:55.311Z,0.00
2018-03-07T01:03:55.363Z,0.00
2018-03-07T01:04:55.374Z,0.00
2018-03-07T01:05:55.403Z,0.00
2018-03-07T01:06:55.432Z,0.00
2018-03-07T01:07:55.463Z,0.00
2018-03-07T01:08:55.496Z,0.00
2018-03-07T01:09:55.524Z,0.00
2018-03-07T01:10:55.651Z,0.00
2018-03-07T01:11:55.585Z,0.00
2018-03-07T01:12:55.620Z,0.00
2018-03-07T01:13:55.659Z,0.00
2018-03-07T01:14:55.674Z,0.00
2018-03-07T01:15:55.712Z,0.00
2018-03-07T01:16:55.736Z,0.00
2018-03-07T01:17:55.766Z,0.00
2018-03-07T01:18:55.802Z,0.00
2018-03-07T01:19:55.826Z,0.00
2018-03-07T01:20:55.856Z,0.00
2018-03-07T01:21:55.893Z,0.00
2018-03-07T01:22:55.916Z,0.00
2018-03-07T01:23:55.946Z,0.00
2018-03-07T01:24:55.975Z,0.00
2018-03-07T01:25:56.010Z,0.00
2018-03-07T01:26:56.036Z,0.00
2018-03-07T01:27:56.067Z,0.00
2018-03-07T01:28:56.097Z,0.00
2018-03-07T01:29:56.132Z,0.00
2018-03-07T01:30:56.158Z,0.00
2018-03-07T01:31:56.190Z,0.00
2018-03-07T01:32:56.216Z,0.00
2018-03-07T01:33:56.252Z,0.00
2018-03-07T01:34:56.308Z,0.00
2018-03-07T01:35:56.309Z,0.00
2018-03-07T01:36:56.335Z,0.00
2018-03-07T01:37:56.367Z,0.00
2018-03-07T01:38:56.406Z,0.00
2018-03-07T01:39:56.436Z,0.00
2018-03-07T01:40:56.470Z,0.00
2018-03-07T01:41:56.591Z,0.00
2018-03-07T01:42:56.518Z,0.00
2018-03-07T01:43:56.548Z,0.00
2018-03-07T01:44:56.579Z,0.00
2018-03-07T01:45:56.618Z,0.00
2018-03-07T01:46:56.638Z,0.00
2018-03-07T01:47:56.669Z,0.00
2018-03-07T01:48:56.699Z,0.00
2018-03-07T01:49:56.729Z,0.00
2018-03-07T01:50:56.758Z,0.00
2018-03-07T01:51:56.790Z,0.00
2018-03-07T01:52:56.817Z,0.00
2018-03-07T01:53:56.854Z,0.00
2018-03-07T01:54:56.879Z,0.00
2018-03-07T01:55:56.909Z,0.00
2018-03-07T01:56:56.940Z,0.00
2018-03-07T01:57:56.970Z,0.00
2018-03-07T01:58:57.001Z,0.00
2018-03-07T01:59:57.027Z,0.00
2018-03-07T02:00:57.062Z,0.00
2018-03-07T02:01:57.091Z,0.00
2018-03-07T02:02:57.125Z,0.00
2018-03-07T02:03:57.152Z,0.00
2018-03-07T02:04:57.180Z,0.00
2018-03-07T02:05:57.214Z,0.00
2018-03-07T02:06:57.237Z,0.00
2018-03-07T02:07:57.275Z,0.00
2018-03-07T02:08:57.302Z,0.00
2018-03-07T02:09:57.332Z,0.00
2018-03-07T02:10:57.364Z,0.00
2018-03-07T02:11:57.386Z,0.00
2018-03-07T02:12:57.416Z,0.00
2018-03-07T02:13:57.448Z,0.00
2018-03-07T02:14:57.477Z,0.00
2018-03-07T02:15:57.516Z,0.00
2018-03-07T02:16:57.546Z,0.00
2018-03-07T02:17:57.649Z,0.00
2018-03-07T02:18:57.600Z,0.00
2018-03-07T02:19:57.629Z,0.00
2018-03-07T02:20:57.658Z,0.00
2018-03-07T02:21:57.688Z,0.00
2018-03-07T02:22:57.717Z,0.00
2018-03-07T02:23:57.748Z,0.00
2018-03-07T02:24:57.778Z,0.00
2018-03-07T02:25:57.809Z,0.00
2018-03-07T02:26:57.838Z,0.00
2018-03-07T02:27:57.867Z,0.00
2018-03-07T02:28:57.898Z,0.00
2018-03-07T02:29:57.930Z,0.00
2018-03-07T02:30:57.959Z,0.00
2018-03-07T02:31:57.997Z,0.00
2018-03-07T02:32:58.020Z,0.00
2018-03-07T02:33:58.052Z,0.00
2018-03-07T02:34:58.093Z,0.00
2018-03-07T02:35:58.118Z,0.00
2018-03-07T02:36:58.141Z,0.00
2018-03-07T02:37:58.177Z,0.00
2018-03-07T02:38:58.199Z,0.00
2018-03-07T02:39:58.229Z,0.00
2018-03-07T02:40:58.261Z,0.00
2018-03-07T02:41:58.382Z,0.00
2018-03-07T02:42:58.319Z,0.00
2018-03-07T02:43:58.347Z,0.00
2018-03-07T02:44:58.379Z,0.00
2018-03-07T02:45:58.407Z,0.00
2018-03-07T02:46:58.440Z,0.00
2018-03-07T02:47:58.467Z,0.00
2018-03-07T02:48:58.500Z,0.00
2018-03-07T02:49:58.545Z,0.00
2018-03-07T02:50:58.556Z,0.00
2018-03-07T02:51:58.592Z,0.00
2018-03-07T02:52:58.617Z,0.00
2018-03-07T02:53:58.724Z,0.00
2018-03-07T02:54:58.678Z,0.00
2018-03-07T02:55:58.708Z,0.00
2018-03-07T02:56:58.741Z,0.00
2018-03-07T02:57:58.769Z,0.00
2018-03-07T02:58:58.811Z,0.00
2018-03-07T02:59:58.834Z,0.00
2018-03-07T03:00:58.860Z,0.00
2018-03-07T03:01:58.888Z,0.00
2018-03-07T03:02:58.933Z,0.00
2018-03-07T03:03:58.948Z,0.00
2018-03-07T03:04:58.979Z,0.00
2018-03-07T03:05:59.009Z,0.00
2018-03-07T03:06:59.040Z,0.00
2018-03-07T03:07:59.069Z,0.00
2018-03-07T03:08:59.101Z,0.00
2018-03-07T03:09:59.133Z,0.00
2018-03-07T03:10:59.165Z,0.00
2018-03-07T03:11:59.193Z,0.00
2018-03-07T03:12:59.224Z,0.00
2018-03-07T03:13:59.250Z,0.00
2018-03-07T03:14:59.281Z,0.00
2018-03-07T03:15:59.311Z,0.00
2018-03-07T03:16:59.342Z,0.00
2018-03-07T03:17:59.484Z,0.00
2018-03-07T03:18:59.402Z,0.00
2018-03-07T03:19:59.431Z,0.00
2018-03-07T03:20:59.456Z,0.00
2018-03-07T03:21:59.493Z,0.00
2018-03-07T03:22:59.519Z,0.00
2018-03-07T03:23:59.554Z,0.00
2018-03-07T03:24:59.583Z,0.00
2018-03-07T03:25:59.607Z,0.00
2018-03-07T03:26:59.644Z,0.00
2018-03-07T03:27:59.668Z,0.00
2018-03-07T03:28:59.696Z,0.00
2018-03-07T03:29:59.727Z,0.00
2018-03-07T03:30:59.760Z,0.00
2018-03-07T03:31:59.787Z,0.00
2018-03-07T03:32:59.814Z,0.00
2018-03-07T03:33:59.848Z,0.00
2018-03-07T03:34:59.888Z,0.00
2018-03-07T03:35:59.908Z,0.00
2018-03-07T03:36:59.938Z,0.00
2018-03-07T03:37:59.971Z,0.00
2018-03-07T03:38:59.998Z,0.00
2018-03-07T03:40:00.084Z,0.00
2018-03-07T03:41:00.057Z,0.00
2018-03-07T03:42:00.088Z,0.00
2018-03-07T03:43:00.119Z,0.00
2018-03-07T03:44:00.151Z,0.00
2018-03-07T03:45:00.183Z,0.00
2018-03-07T03:46:00.207Z,0.00
2018-03-07T03:47:00.245Z,0.00
2018-03-07T03:48:00.269Z,0.00
2018-03-07T03:49:00.297Z,0.00
2018-03-07T03:50:00.327Z,0.00
2018-03-07T03:51:00.358Z,0.00
2018-03-07T03:52:00.400Z,0.00
2018-03-07T03:53:00.419Z,0.00
2018-03-07T03:54:00.460Z,0.00
2018-03-07T03:55:00.478Z,0.00
2018-03-07T03:56:00.509Z,0.00
2018-03-07T03:57:00.538Z,0.00
2018-03-07T03:58:00.571Z,0.00
2018-03-07T03:59:00.602Z,0.00
2018-03-07T04:00:00.632Z,0.00
2018-03-07T04:01:00.658Z,0.00
2018-03-07T04:02:00.690Z,0.00
2018-03-07T04:03:00.723Z,0.00
2018-03-07T04:04:00.752Z,0.00
2018-03-07T04:05:00.780Z,0.00
2018-03-07T04:06:00.808Z,0.00
2018-03-07T04:07:00.848Z,0.00
2018-03-07T04:08:00.868Z,0.00
2018-03-07T04:09:00.898Z,0.00
2018-03-07T04:10:00.928Z,0.00
2018-03-07T04:11:01.020Z,0.00
2018-03-07T04:12:00.987Z,0.00
2018-03-07T04:13:01.018Z,0.00
2018-03-07T04:14:01.047Z,0.00
2018-03-07T04:15:01.078Z,0.00
2018-03-07T04:16:01.106Z,0.00
2018-03-07T04:17:01.143Z,0.00
2018-03-07T04:18:01.285Z,0.00
2018-03-07T04:19:01.203Z,0.00
2018-03-07T04:20:01.229Z,0.00
2018-03-07T04:21:01.256Z,0.00
2018-03-07T04:22:01.288Z,0.00
2018-03-07T04:23:01.319Z,0.00
2018-03-07T04:24:01.351Z,0.00
2018-03-07T04:25:01.378Z,0.00
2018-03-07T04:26:01.414Z,0.00
2018-03-07T04:27:01.440Z,0.00
2018-03-07T04:28:01.520Z,0.00
2018-03-07T04:29:01.494Z,0.00
2018-03-07T04:30:01.527Z,0.00
2018-03-07T04:31:01.556Z,0.00
2018-03-07T04:32:01.593Z,0.00
2018-03-07T04:33:01.619Z,0.00
2018-03-07T04:34:01.646Z,0.00
2018-03-07T04:35:01.677Z,0.00
2018-03-07T04:36:01.703Z,0.00
2018-03-07T04:37:01.735Z,0.00
2018-03-07T04:38:01.764Z,0.00
2018-03-07T04:39:01.796Z,0.00
2018-03-07T04:40:01.829Z,0.00
2018-03-07T04:41:01.854Z,0.00
2018-03-07T04:42:01.885Z,0.00
2018-03-07T04:43:01.915Z,0.00
2018-03-07T04:44:01.944Z,0.00
2018-03-07T04:45:01.974Z,0.00
2018-03-07T04:46:02.006Z,0.00
2018-03-07T04:47:02.193Z,0.00
2018-03-07T04:48:02.065Z,0.00
2018-03-07T04:49:02.096Z,0.00
2018-03-07T04:50:02.125Z,0.00
2018-03-07T04:51:02.153Z,0.00
2018-03-07T04:52:02.184Z,0.00
2018-03-07T04:53:02.213Z,0.00
2018-03-07T04:54:02.250Z,0.00
2018-03-07T04:55:02.274Z,0.00
2018-03-07T04:56:02.303Z,0.00
2018-03-07T04:57:02.333Z,0.00
2018-03-07T04:58:02.368Z,0.00
2018-03-07T04:59:02.394Z,0.00
2018-03-07T05:00:02.424Z,0.00
2018-03-07T05:01:02.454Z,0.00
2018-03-07T05:02:02.482Z,0.00
2018-03-07T05:03:02.514Z,0.00
2018-03-07T05:04:02.544Z,0.00
2018-03-07T05:05:02.577Z,0.00
2018-03-07T05:06:02.604Z,0.00
2018-03-07T05:07:02.634Z,0.00
2018-03-07T05:08:02.665Z,0.00
2018-03-07T05:09:02.696Z,0.00
2018-03-07T05:10:02.726Z,0.00
2018-03-07T05:11:02.805Z,0.00
2018-03-07T05:12:02.785Z,0.00
2018-03-07T05:13:02.814Z,0.00
2018-03-07T05:14:02.846Z,0.00
2018-03-07T05:15:02.876Z,0.00
2018-03-07T05:16:02.902Z,0.00
2018-03-07T05:17:02.934Z,0.00
2018-03-07T05:18:02.979Z,0.00
2018-03-07T05:19:02.997Z,0.00
2018-03-07T05:20:03.026Z,0.00
2018-03-07T05:21:03.052Z,0.00
2018-03-07T05:22:03.087Z,0.00
2018-03-07T05:23:03.113Z,0.00
2018-03-07T05:24:03.142Z,0.00
2018-03-07T05:25:03.171Z,0.00
2018-03-07T05:26:03.202Z,0.00
2018-03-07T05:27:03.238Z,0.00
2018-03-07T05:28:03.266Z,0.00
2018-03-07T05:29:03.299Z,4.00
2018-03-07T05:30:03.390Z,4.00
2018-03-07T05:31:03.357Z,4.00
2018-03-07T05:32:03.383Z,4.00
2018-03-07T05:33:03.418Z,4.00
2018-03-07T05:34:03.448Z,4.00
2018-03-07T05:35:03.479Z,8.00
2018-03-07T05:36:03.510Z,4.00
2018-03-07T05:37:03.650Z,8.00
2018-03-07T05:38:03.586Z,12.00
2018-03-07T05:39:03.599Z,12.00
2018-03-07T05:40:03.629Z,16.00
2018-03-07T05:41:03.662Z,16.00
2018-03-07T05:42:03.689Z,16.00
2018-03-07T05:43:03.726Z,24.00
2018-03-07T05:44:03.749Z,28.00
2018-03-07T05:45:03.780Z,28.00
2018-03-07T05:46:03.810Z,36.00
2018-03-07T05:47:03.839Z,40.00
2018-03-07T05:48:03.870Z,44.00
2018-03-07T05:49:03.901Z,52.00
2018-03-07T05:50:03.930Z,60.00
2018-03-07T05:51:03.960Z,64.00
2018-03-07T05:52:03.991Z,72.00
2018-03-07T05:53:04.021Z,84.00
2018-03-07T05:54:04.107Z,92.00
2018-03-07T05:55:04.088Z,100.00
2018-03-07T05:56:04.110Z,108.00
2018-03-07T05:57:04.142Z,108.00
2018-03-07T05:58:04.172Z,112.00
2018-03-07T05:59:04.204Z,116.00
2018-03-07T06:00:04.279Z,124.00
2018-03-07T06:01:04.264Z,136.00
2018-03-07T06:02:04.295Z,144.00
2018-03-07T06:03:04.329Z,160.00
2018-03-07T06:04:04.354Z,176.00
2018-03-07T06:05:04.390Z,180.00
2018-03-07T06:06:04.415Z,192.00
2018-03-07T06:07:04.448Z,208.00
2018-03-07T06:08:04.479Z,228.00
2018-03-07T06:09:04.511Z,248.00
2018-03-07T06:10:04.537Z,252.00
2018-03-07T06:11:04.627Z,232.00
2018-03-07T06:12:04.596Z,204.00
2018-03-07T06:13:04.629Z,176.00
2018-03-07T06:14:04.664Z,176.00
2018-03-07T06:15:04.688Z,188.00
2018-03-07T06:16:04.718Z,208.00
2018-03-07T06:17:04.755Z,200.00
2018-03-07T06:18:04.851Z,192.00
2018-03-07T06:19:04.809Z,192.00
2018-03-07T06:20:04.839Z,212.00
2018-03-07T06:21:04.882Z,252.00
2018-03-07T06:22:04.904Z,324.00
2018-03-07T06:23:04.936Z,420.00
2018-03-07T06:24:04.966Z,484.00
2018-03-07T06:25:04.998Z,540.00
2018-03-07T06:26:05.026Z,540.00
2018-03-07T06:27:05.054Z,536.00
2018-03-07T06:28:05.085Z,520.00
2018-03-07T06:29:05.130Z,508.00
2018-03-07T06:30:05.151Z,500.00
2018-03-07T06:31:05.183Z,516.00
2018-03-07T06:32:05.207Z,516.00
2018-03-07T06:33:05.238Z,496.00
2018-03-07T06:34:05.324Z,472.00
2018-03-07T06:35:05.298Z,420.00
2018-03-07T06:36:05.329Z,396.00
2018-03-07T06:37:05.363Z,380.00
2018-03-07T06:38:05.395Z,380.00
2018-03-07T06:39:05.429Z,392.00
2018-03-07T06:40:05.458Z,408.00
2018-03-07T06:41:05.538Z,420.00
2018-03-07T06:42:05.517Z,400.00
2018-03-07T06:43:05.548Z,376.00
2018-03-07T06:44:05.578Z,340.00
2018-03-07T06:45:05.610Z,312.00
2018-03-07T06:46:05.638Z,316.00
2018-03-07T06:47:05.720Z,356.00
2018-03-07T06:48:05.696Z,392.00
2018-03-07T06:49:05.728Z,424.00
2018-03-07T06:50:05.758Z,460.00
2018-03-07T06:51:05.790Z,500.00
2018-03-07T06:52:05.821Z,524.00
2018-03-07T06:53:05.852Z,552.00
2018-03-07T06:54:05.980Z,600.00
2018-03-07T06:55:05.914Z,624.00
2018-03-07T06:56:05.944Z,684.00
2018-03-07T06:57:05.979Z,760.00
2018-03-07T06:58:06.004Z,788.00
2018-03-07T06:59:06.039Z,760.00
2018-03-07T07:00:06.069Z,744.00
2018-03-07T07:01:06.099Z,740.00
2018-03-07T07:02:06.129Z,748.00
2018-03-07T07:03:06.159Z,808.00
2018-03-07T07:04:06.192Z,872.00
2018-03-07T07:05:06.222Z,956.00
2018-03-07T07:06:06.253Z,968.00
2018-03-07T07:07:06.283Z,928.00
2018-03-07T07:08:06.314Z,936.00
2018-03-07T07:09:06.347Z,948.00
2018-03-07T07:10:06.376Z,1092.00
2018-03-07T07:11:06.411Z,1336.00
2018-03-07T07:12:06.437Z,1484.00
2018-03-07T07:13:06.489Z,1540.00
2018-03-07T07:14:06.502Z,1564.00
2018-03-07T07:15:06.533Z,1544.00
2018-03-07T07:16:06.563Z,1628.00
2018-03-07T07:17:06.595Z,1800.00
2018-03-07T07:18:06.626Z,1988.00
2018-03-07T07:19:06.655Z,2160.00
2018-03-07T07:20:06.689Z,2284.00
2018-03-07T07:21:06.721Z,2344.00
2018-03-07T07:22:06.751Z,2344.00
2018-03-07T07:23:06.797Z,2384.00
2018-03-07T07:24:06.812Z,2424.00
2018-03-07T07:25:06.843Z,2452.00
2018-03-07T07:26:06.878Z,2460.00
2018-03-07T07:27:06.909Z,2432.00
2018-03-07T07:28:06.933Z,2444.00
2018-03-07T07:29:06.966Z,2516.00
2018-03-07T07:30:07.003Z,2640.00
2018-03-07T07:31:07.029Z,2712.00
2018-03-07T07:32:07.058Z,2720.00
2018-03-07T07:33:07.089Z,2696.00
2018-03-07T07:34:07.120Z,2692.00
2018-03-07T07:35:07.154Z,2756.00
2018-03-07T07:36:07.184Z,2960.00
2018-03-07T07:37:07.355Z,3232.00
2018-03-07T07:38:07.244Z,3520.00
2018-03-07T07:39:07.277Z,3856.00
2018-03-07T07:40:07.307Z,4192.00
2018-03-07T07:41:07.337Z,4516.00
2018-03-07T07:42:07.370Z,4856.00
2018-03-07T07:43:07.406Z,5180.00
2018-03-07T07:44:07.436Z,5456.00
2018-03-07T07:45:07.465Z,5648.00
2018-03-07T07:46:07.494Z,5760.00
2018-03-07T07:47:07.542Z,5900.00
2018-03-07T07:48:07.556Z,6168.00
2018-03-07T07:49:07.589Z,6564.00
2018-03-07T07:50:07.620Z,7036.00
2018-03-07T07:51:07.652Z,7452.00
2018-03-07T07:52:07.681Z,7784.00
2018-03-07T07:53:07.714Z,7972.00
2018-03-07T07:54:07.756Z,8092.00
2018-03-07T07:55:07.780Z,7992.00
2018-03-07T07:56:07.808Z,7500.00
2018-03-07T07:57:07.837Z,6776.00
2018-03-07T07:58:07.869Z,6404.00
2018-03-07T07:59:07.903Z,6408.00
2018-03-07T08:00:07.935Z,6568.00
2018-03-07T08:01:08.058Z,6280.00
2018-03-07T08:02:07.998Z,5748.00
2018-03-07T08:03:08.029Z,5444.00
2018-03-07T08:04:08.058Z,5284.00
2018-03-07T08:05:08.092Z,5300.00
2018-03-07T08:06:08.124Z,5324.00
2018-03-07T08:07:08.153Z,5372.00
2018-03-07T08:08:08.183Z,5452.00
2018-03-07T08:09:08.218Z,5648.00
2018-03-07T08:10:08.248Z,5996.00
2018-03-07T08:11:08.280Z,6448.00
2018-03-07T08:12:08.326Z,6904.00
2018-03-07T08:13:08.394Z,7432.00
2018-03-07T08:14:08.380Z,7844.00
2018-03-07T08:15:08.409Z,7928.00
2018-03-07T08:16:08.448Z,8080.00
2018-03-07T08:17:08.472Z,8280.00
2018-03-07T08:18:08.551Z,8228.00
2018-03-07T08:19:08.535Z,7768.00
2018-03-07T08:20:08.619Z,7092.00
2018-03-07T08:21:08.601Z,6368.00
2018-03-07T08:22:08.637Z,5792.00
2018-03-07T08:23:08.664Z,5388.00
2018-03-07T08:24:08.695Z,5240.00
2018-03-07T08:25:08.733Z,5424.00
2018-03-07T08:26:08.761Z,5664.00
2018-03-07T08:27:08.803Z,5816.00
2018-03-07T08:28:08.826Z,6356.00
2018-03-07T08:29:08.860Z,7272.00
2018-03-07T08:30:08.892Z,7768.00
2018-03-07T08:31:08.924Z,7888.00
2018-03-07T08:32:08.954Z,7776.00
2018-03-07T08:33:08.992Z,7664.00
2018-03-07T08:34:09.020Z,7708.00
2018-03-07T08:35:09.053Z,7856.00
2018-03-07T08:36:09.086Z,8008.00
2018-03-07T08:37:09.126Z,8012.00
2018-03-07T08:38:09.151Z,8044.00
2018-03-07T08:39:09.183Z,8312.00
2018-03-07T08:40:09.216Z,8624.00
2018-03-07T08:41:09.249Z,8876.00
2018-03-07T08:42:09.283Z,9028.00
2018-03-07T08:43:09.316Z,9136.00
2018-03-07T08:44:09.407Z,8980.00
2018-03-07T08:45:09.377Z,9080.00
2018-03-07T08:46:09.413Z,9088.00
2018-03-07T08:47:09.446Z,9076.00
2018-03-07T08:48:09.476Z,9404.00
2018-03-07T08:49:09.513Z,9808.00
2018-03-07T08:50:09.544Z,9932.00
2018-03-07T08:51:09.636Z,9868.00
2018-03-07T08:52:09.610Z,9676.00
2018-03-07T08:53:09.654Z,9312.00
2018-03-07T08:54:09.675Z,9116.00
2018-03-07T08:55:09.713Z,9120.00
2018-03-07T08:56:09.739Z,9520.00
2018-03-07T08:57:09.775Z,9964.00
2018-03-07T08:58:09.808Z,9984.00
2018-03-07T08:59:09.840Z,9528.00
2018-03-07T09:00:09.885Z,9664.00
2018-03-07T09:01:09.908Z,10168.00
2018-03-07T09:02:09.941Z,10520.00
2018-03-07T09:03:10.028Z,10772.00
2018-03-07T09:04:10.012Z,11064.00
2018-03-07T09:05:10.041Z,10836.00
2018-03-07T09:06:10.077Z,10756.00
2018-03-07T09:07:10.111Z,11184.00
2018-03-07T09:08:10.142Z,11812.00
2018-03-07T09:09:10.185Z,11908.00
2018-03-07T09:10:10.321Z,11156.00
2018-03-07T09:11:10.245Z,9660.00
2018-03-07T09:12:10.277Z,9104.00
2018-03-07T09:13:10.308Z,9112.00
2018-03-07T09:14:10.347Z,9468.00
2018-03-07T09:15:10.376Z,9236.00
2018-03-07T09:16:10.412Z,8568.00
2018-03-07T09:17:10.562Z,8032.00
2018-03-07T09:18:10.481Z,7512.00
2018-03-07T09:19:10.518Z,7108.00
2018-03-07T09:20:10.550Z,6860.00
2018-03-07T09:21:10.598Z,6680.00
2018-03-07T09:22:10.618Z,6296.00
2018-03-07T09:23:10.653Z,6248.00
2018-03-07T09:24:10.685Z,6368.00
2018-03-07T09:25:10.720Z,6788.00
2018-03-07T09:26:10.759Z,6488.00
2018-03-07T09:27:10.789Z,6376.00
2018-03-07T09:28:10.825Z,6248.00
2018-03-07T09:29:10.860Z,6264.00
2018-03-07T09:30:10.898Z,6336.00
2018-03-07T09:31:10.929Z,6196.00
2018-03-07T09:32:10.961Z,6136.00
2018-03-07T09:33:10.996Z,6096.00
2018-03-07T09:34:11.035Z,6428.00
2018-03-07T09:35:11.065Z,6680.00
2018-03-07T09:36:11.100Z,6424.00
2018-03-07T09:37:11.132Z,6088.00
2018-03-07T09:38:11.177Z,6272.00
2018-03-07T09:39:11.204Z,6360.00
2018-03-07T09:40:11.237Z,6056.00
2018-03-07T09:41:11.355Z,5944.00
2018-03-07T09:42:11.306Z,6060.00
2018-03-07T09:43:11.342Z,6752.00
2018-03-07T09:44:11.375Z,7328.00
2018-03-07T09:45:11.447Z,7060.00
2018-03-07T09:46:11.443Z,7912.00
2018-03-07T09:47:11.481Z,9240.00
2018-03-07T09:48:11.509Z,9072.00
2018-03-07T09:49:11.542Z,8504.00
2018-03-07T09:50:11.577Z,7984.00
2018-03-07T09:51:11.613Z,7172.00
2018-03-07T09:52:11.645Z,6624.00
2018-03-07T09:53:11.683Z,6408.00
2018-03-07T09:54:11.714Z,6356.00
2018-03-07T09:55:11.747Z,6220.00
2018-03-07T09:56:11.856Z,6120.00
2018-03-07T09:57:11.819Z,6120.00
2018-03-07T09:58:11.850Z,6160.00
2018-03-07T09:59:11.883Z,6180.00
2018-03-07T10:00:11.917Z,5968.00
2018-03-07T10:01:11.958Z,5796.00
2018-03-07T10:02:11.985Z,5732.00
2018-03-07T10:03:12.024Z,5792.00
2018-03-07T10:04:12.054Z,5976.00
2018-03-07T10:05:12.090Z,5824.00
2018-03-07T10:06:12.126Z,5640.00
2018-03-07T10:07:12.172Z,5440.00
2018-03-07T10:08:12.189Z,5400.00
2018-03-07T10:09:12.224Z,5320.00
2018-03-07T10:10:12.264Z,5468.00
2018-03-07T10:11:12.303Z,5620.00
2018-03-07T10:12:12.329Z,5728.00
2018-03-07T10:13:12.366Z,5688.00
2018-03-07T10:14:12.534Z,5764.00
2018-03-07T10:15:12.431Z,5764.00
2018-03-07T10:16:12.479Z,5940.00
2018-03-07T10:17:12.497Z,6428.00
2018-03-07T10:18:12.531Z,6356.00
2018-03-07T10:19:12.566Z,6768.00
2018-03-07T10:20:12.600Z,7292.00
2018-03-07T10:21:12.637Z,7780.00
2018-03-07T10:22:12.675Z,7228.00
2018-03-07T10:23:12.709Z,6696.00
2018-03-07T10:24:12.737Z,6728.00
2018-03-07T10:25:12.773Z,6700.00
2018-03-07T10:26:12.802Z,6776.00
2018-03-07T10:27:12.837Z,6964.00
2018-03-07T10:28:12.870Z,6900.00
2018-03-07T10:29:12.907Z,6712.00
2018-03-07T10:30:12.942Z,6412.00
2018-03-07T10:31:12.988Z,6228.00
2018-03-07T10:32:13.008Z,6244.00
2018-03-07T10:33:13.039Z,6204.00
2018-03-07T10:34:13.077Z,6320.00
2018-03-07T10:35:13.110Z,7016.00
2018-03-07T10:36:13.142Z,6836.00
2018-03-07T10:37:13.179Z,6500.00
2018-03-07T10:38:13.275Z,6604.00
2018-03-07T10:39:13.248Z,6448.00
2018-03-07T10:40:13.288Z,6272.00
2018-03-07T10:41:13.318Z,6388.00
2018-03-07T10:42:13.351Z,6936.00
2018-03-07T10:43:13.385Z,7024.00
2018-03-07T10:44:13.420Z,6632.00
2018-03-07T10:45:13.462Z,6464.00
2018-03-07T10:46:13.491Z,6664.00
2018-03-07T10:47:13.530Z,6812.00
2018-03-07T10:48:13.557Z,7096.00
2018-03-07T10:49:13.592Z,8008.00
2018-03-07T10:50:13.652Z,7488.00
2018-03-07T10:51:13.662Z,7124.00
2018-03-07T10:52:13.727Z,6816.00
2018-03-07T10:53:13.732Z,6224.00
2018-03-07T10:54:13.767Z,5968.00
2018-03-07T10:55:13.802Z,5876.00
2018-03-07T10:56:13.838Z,5852.00
2018-03-07T10:57:13.919Z,5724.00
2018-03-07T10:58:13.906Z,5772.00
2018-03-07T10:59:13.941Z,5704.00
2018-03-07T11:00:13.974Z,5592.00
2018-03-07T11:01:14.012Z,5524.00
2018-03-07T11:02:14.045Z,5480.00
2018-03-07T11:03:14.088Z,5392.00
2018-03-07T11:04:14.179Z,5316.00
2018-03-07T11:05:14.147Z,5300.00
2018-03-07T11:06:14.182Z,5340.00
2018-03-07T11:07:14.222Z,5368.00
2018-03-07T11:08:14.252Z,5356.00
2018-03-07T11:09:14.287Z,5248.00
2018-03-07T11:10:14.324Z,5128.00
2018-03-07T11:11:14.358Z,5068.00
2018-03-07T11:12:14.390Z,5012.00
2018-03-07T11:13:14.426Z,5008.00
2018-03-07T11:14:14.468Z,4956.00
2018-03-07T11:15:14.500Z,4996.00
2018-03-07T11:16:14.528Z,5000.00
2018-03-07T11:17:14.563Z,5004.00
2018-03-07T11:18:14.598Z,5028.00
2018-03-07T11:19:14.643Z,5012.00
2018-03-07T11:20:14.668Z,4952.00
2018-03-07T11:21:14.709Z,4936.00
2018-03-07T11:22:14.736Z,4928.00
2018-03-07T11:23:14.774Z,4908.00
2018-03-07T11:24:14.805Z,4888.00
2018-03-07T11:25:14.850Z,4856.00
2018-03-07T11:26:14.875Z,4888.00
2018-03-07T11:27:14.910Z,4876.00
2018-03-07T11:28:14.954Z,4940.00
2018-03-07T11:29:14.978Z,4768.00
2018-03-07T11:30:15.017Z,4972.00
2018-03-07T11:31:15.048Z,5000.00
2018-03-07T11:32:15.081Z,5076.00
2018-03-07T11:33:15.117Z,5080.00
2018-03-07T11:34:15.152Z,5116.00
2018-03-07T11:35:15.256Z,5088.00
2018-03-07T11:36:15.219Z,5008.00
2018-03-07T11:37:15.271Z,5228.00
2018-03-07T11:38:15.294Z,5396.00
2018-03-07T11:39:15.320Z,5132.00
2018-03-07T11:40:15.356Z,5000.00
2018-03-07T11:41:15.389Z,5172.00
2018-03-07T11:42:15.427Z,5176.00
2018-03-07T11:43:15.463Z,5656.00
2018-03-07T11:44:15.491Z,6220.00
2018-03-07T11:45:15.535Z,7252.00
2018-03-07T11:46:15.563Z,9312.00
2018-03-07T11:47:15.597Z,9364.00
2018-03-07T11:48:15.630Z,8548.00
2018-03-07T11:49:15.667Z,8540.00
2018-03-07T11:50:15.699Z,9488.00
2018-03-07T11:51:15.737Z,11596.00
2018-03-07T11:52:15.775Z,10916.00
2018-03-07T11:53:15.802Z,9772.00
2018-03-07T11:54:15.893Z,9272.00
2018-03-07T11:55:15.873Z,9124.00
2018-03-07T11:56:15.908Z,9568.00
2018-03-07T11:57:15.989Z,9592.00
2018-03-07T11:58:16.003Z,9880.00
2018-03-07T11:59:16.015Z,10276.00
2018-03-07T12:00:16.047Z,10432.00
2018-03-07T12:01:16.092Z,10432.00
2018-03-07T12:02:16.133Z,10152.00
2018-03-07T12:03:16.152Z,10460.00
2018-03-07T12:04:16.195Z,11476.00
2018-03-07T12:05:16.223Z,11344.00
2018-03-07T12:06:16.262Z,9892.00
2018-03-07T12:07:16.294Z,8696.00
2018-03-07T12:08:16.412Z,8988.00
2018-03-07T12:09:16.362Z,8996.00
2018-03-07T12:10:16.401Z,9056.00
2018-03-07T12:11:16.437Z,9344.00
2018-03-07T12:12:16.472Z,9196.00
2018-03-07T12:13:16.510Z,8888.00
2018-03-07T12:14:16.550Z,8608.00
2018-03-07T12:15:16.588Z,8268.00
2018-03-07T12:16:16.613Z,8060.00
2018-03-07T12:17:16.651Z,7952.00
2018-03-07T12:18:16.684Z,8088.00
2018-03-07T12:19:16.721Z,8336.00
2018-03-07T12:20:16.756Z,8920.00
2018-03-07T12:21:16.791Z,9484.00
2018-03-07T12:22:16.828Z,10364.00
2018-03-07T12:23:16.864Z,11648.00
2018-03-07T12:24:16.902Z,13676.00
2018-03-07T12:25:16.938Z,15072.00
2018-03-07T12:26:16.972Z,16088.00
2018-03-07T12:27:17.009Z,17248.00
2018-03-07T12:28:17.045Z,17728.00
2018-03-07T12:29:17.091Z,17312.00
2018-03-07T12:30:17.118Z,16576.00
2018-03-07T12:31:17.153Z,16184.00
2018-03-07T12:32:17.203Z,15260.00
2018-03-07T12:33:17.225Z,14996.00
2018-03-07T12:34:17.264Z,15108.00
2018-03-07T12:35:17.298Z,15056.00
2018-03-07T12:36:17.334Z,15280.00
2018-03-07T12:37:17.373Z,15388.00
2018-03-07T12:38:17.411Z,15988.00
2018-03-07T12:39:17.447Z,17216.00